Flugplatz Bexbach (EDRX)

Hier findest Du alle Informationen zum Flugplatz Bexbach (EDRX).

Informationen für Piloten zum Flugplatz Bexbach

Hier findest Du alle relevanten Informationen, die Du als Pilot benötigst, um Bexbach anzufliegen.

Flugplatz: Bexbach ICAO-Code: EDRX
Frequenz Turm: 123,05 Mhz GAFOR Gebiet: 44
Frequenz Ground: 123,05 Mhz Mogas: ja
Platzrunde: N 2000 ft Landegebühr: 0 €
Platzhöhe: - Sunrise: 04:10 Uhr UTC
Pisten: 06/24 - 550 m x 30 m, GRAS Sunset: 19:03 Uhr UTC

Flugwetter am Flugplatz Bexbach

Die METAR Information stammen aus EDDR (17.59 km entfernt).

METAR Code:
2020/07/04 18:50
EDDR 041850Z 26009KT 230V290 9999 BKN048 22/11 Q1018 NOSIG

Temperatur: 30,9 °C Niederschlag: - Wind: 6,0 kt
Temperatur (min.): 30,6 °C Luftdruck: 1019 hPa Windrichtung: 90 °
Temperatur (max.): 31,1 °C Luftfeuchtigkeit: 35 % Bewölkung: -

Flugschulen am Flugplatz Bexbach

Am Flugplatz Bexbach gibt es leider keine Flugschule.

Benachbarte Flugplätze und Flugschulen

Es gibt 14 weitere Flugplätze in einem Umkreis von 50 km um den Flugplatz Bexbach.

Jetzt anmelden

Passwort vergessen

Umfrage Archiv

Wären Rettungsgeräte keine Pflicht mehr, würdet Ihr Euer UL trotzdem mit einem ausstatten?

Ja
82.9 %
Nein
17.1 %
Stimmen: 251 | Diskussion
Anzeige: Roland Aircraft
Statistik Alle Mitglieder

Aktuell sind 56 Besucher online, davon 4 Mitglieder und 52 Gäste.


Mitglieder online:
torsten  Nordex  GonzoFlieger  Chris_EDNC 

Anzeige: VFR Sprechfunk Simulator


Anzeige: Pocket FMS